sensor_id;sensor_type;location;lat;lon;timestamp;P1;durP1;ratioP1;P2;durP2;ratioP2
61393;SDS011;48555;50.952;-0.120;2024-01-10T00:01:06;6.60;;;3.00;;
61393;SDS011;48555;50.952;-0.120;2024-01-10T00:03:31;8.43;;;2.90;;
61393;SDS011;48555;50.952;-0.120;2024-01-10T00:05:57;6.75;;;2.88;;
61393;SDS011;48555;50.952;-0.120;2024-01-10T00:08:22;8.63;;;3.20;;
61393;SDS011;48555;50.952;-0.120;2024-01-10T00:10:48;7.15;;;3.13;;
61393;SDS011;48555;50.952;-0.120;2024-01-10T00:13:13;7.22;;;3.20;;
61393;SDS011;48555;50.952;-0.120;2024-01-10T00:15:38;7.28;;;2.92;;
61393;SDS011;48555;50.952;-0.120;2024-01-10T00:18:04;5.93;;;2.35;;
61393;SDS011;48555;50.952;-0.120;2024-01-10T00:20:29;6.90;;;2.65;;
61393;SDS011;48555;50.952;-0.120;2024-01-10T00:22:54;12.02;;;3.45;;
61393;SDS011;48555;50.952;-0.120;2024-01-10T00:25:20;8.52;;;3.55;;
61393;SDS011;48555;50.952;-0.120;2024-01-10T00:27:45;9.23;;;3.30;;
61393;SDS011;48555;50.952;-0.120;2024-01-10T00:30:10;6.25;;;3.15;;
61393;SDS011;48555;50.952;-0.120;2024-01-10T00:32:36;6.05;;;2.97;;
61393;SDS011;48555;50.952;-0.120;2024-01-10T00:35:01;6.30;;;2.90;;
61393;SDS011;48555;50.952;-0.120;2024-01-10T00:37:27;6.57;;;2.65;;
61393;SDS011;48555;50.952;-0.120;2024-01-10T00:39:53;8.63;;;2.97;;
61393;SDS011;48555;50.952;-0.120;2024-01-10T00:42:18;6.50;;;3.30;;
61393;SDS011;48555;50.952;-0.120;2024-01-10T00:44:43;7.50;;;3.10;;
61393;SDS011;48555;50.952;-0.120;2024-01-10T00:47:10;7.07;;;2.90;;
61393;SDS011;48555;50.952;-0.120;2024-01-10T00:49:36;5.20;;;2.50;;
61393;SDS011;48555;50.952;-0.120;2024-01-10T00:52:01;8.45;;;2.95;;
61393;SDS011;48555;50.952;-0.120;2024-01-10T00:54:26;7.20;;;3.28;;
61393;SDS011;48555;50.952;-0.120;2024-01-10T00:56:52;9.75;;;3.60;;
61393;SDS011;48555;50.952;-0.120;2024-01-10T00:59:17;6.80;;;2.88;;
61393;SDS011;48555;50.952;-0.120;2024-01-10T01:01:42;6.70;;;3.05;;
61393;SDS011;48555;50.952;-0.120;2024-01-10T01:04:08;6.70;;;3.30;;
61393;SDS011;48555;50.952;-0.120;2024-01-10T01:06:33;5.43;;;3.00;;
61393;SDS011;48555;50.952;-0.120;2024-01-10T01:08:58;6.43;;;2.70;;
61393;SDS011;48555;50.952;-0.120;2024-01-10T01:11:24;9.77;;;3.45;;
61393;SDS011;48555;50.952;-0.120;2024-01-10T01:13:49;8.10;;;3.25;;
61393;SDS011;48555;50.952;-0.120;2024-01-10T01:16:15;8.65;;;2.80;;
61393;SDS011;48555;50.952;-0.120;2024-01-10T01:18:40;8.90;;;2.80;;
61393;SDS011;48555;50.952;-0.120;2024-01-10T01:21:10;7.75;;;2.95;;
61393;SDS011;48555;50.952;-0.120;2024-01-10T01:23:35;8.63;;;3.10;;
61393;SDS011;48555;50.952;-0.120;2024-01-10T01:26:01;5.47;;;2.50;;
61393;SDS011;48555;50.952;-0.120;2024-01-10T01:28:26;8.63;;;2.80;;
61393;SDS011;48555;50.952;-0.120;2024-01-10T01:30:51;6.70;;;2.72;;
61393;SDS011;48555;50.952;-0.120;2024-01-10T01:33:17;6.78;;;3.05;;
61393;SDS011;48555;50.952;-0.120;2024-01-10T01:35:42;7.10;;;3.60;;
61393;SDS011;48555;50.952;-0.120;2024-01-10T01:38:07;6.07;;;3.10;;
61393;SDS011;48555;50.952;-0.120;2024-01-10T01:40:32;8.07;;;3.00;;
61393;SDS011;48555;50.952;-0.120;2024-01-10T01:42:58;6.95;;;3.10;;
61393;SDS011;48555;50.952;-0.120;2024-01-10T01:45:23;7.05;;;3.08;;
61393;SDS011;48555;50.952;-0.120;2024-01-10T01:47:49;7.10;;;3.13;;
61393;SDS011;48555;50.952;-0.120;2024-01-10T01:50:14;6.95;;;3.28;;
61393;SDS011;48555;50.952;-0.120;2024-01-10T01:52:40;11.38;;;3.38;;
61393;SDS011;48555;50.952;-0.120;2024-01-10T01:55:06;8.52;;;2.88;;
61393;SDS011;48555;50.952;-0.120;2024-01-10T01:57:32;6.53;;;2.75;;
61393;SDS011;48555;50.952;-0.120;2024-01-10T01:59:58;6.03;;;3.10;;
61393;SDS011;48555;50.952;-0.120;2024-01-10T02:02:24;9.18;;;3.25;;
61393;SDS011;48555;50.952;-0.120;2024-01-10T02:04:50;6.07;;;2.80;;
61393;SDS011;48555;50.952;-0.120;2024-01-10T02:07:15;10.00;;;3.55;;
61393;SDS011;48555;50.952;-0.120;2024-01-10T02:09:41;6.57;;;2.97;;
61393;SDS011;48555;50.952;-0.120;2024-01-10T02:12:06;8.98;;;3.58;;
61393;SDS011;48555;50.952;-0.120;2024-01-10T02:14:31;8.82;;;3.40;;
61393;SDS011;48555;50.952;-0.120;2024-01-10T02:16:57;6.88;;;3.38;;
61393;SDS011;48555;50.952;-0.120;2024-01-10T02:19:22;6.00;;;3.00;;
61393;SDS011;48555;50.952;-0.120;2024-01-10T02:21:49;8.27;;;3.10;;
61393;SDS011;48555;50.952;-0.120;2024-01-10T02:24:14;8.23;;;3.35;;
61393;SDS011;48555;50.952;-0.120;2024-01-10T02:26:40;8.48;;;3.20;;
61393;SDS011;48555;50.952;-0.120;2024-01-10T02:29:05;7.68;;;3.30;;
61393;SDS011;48555;50.952;-0.120;2024-01-10T02:31:31;7.75;;;3.42;;
61393;SDS011;48555;50.952;-0.120;2024-01-10T02:33:56;11.63;;;2.97;;
61393;SDS011;48555;50.952;-0.120;2024-01-10T02:36:21;10.60;;;3.38;;
61393;SDS011;48555;50.952;-0.120;2024-01-10T02:38:47;8.60;;;3.90;;
61393;SDS011;48555;50.952;-0.120;2024-01-10T02:41:12;7.68;;;3.00;;
61393;SDS011;48555;50.952;-0.120;2024-01-10T02:43:38;7.53;;;3.22;;
61393;SDS011;48555;50.952;-0.120;2024-01-10T02:46:04;9.70;;;3.55;;
61393;SDS011;48555;50.952;-0.120;2024-01-10T02:48:29;10.07;;;3.67;;
61393;SDS011;48555;50.952;-0.120;2024-01-10T02:50:54;6.57;;;3.38;;
61393;SDS011;48555;50.952;-0.120;2024-01-10T02:53:20;7.00;;;3.08;;
61393;SDS011;48555;50.952;-0.120;2024-01-10T02:55:46;9.57;;;3.88;;
61393;SDS011;48555;50.952;-0.120;2024-01-10T02:58:13;9.15;;;3.67;;
61393;SDS011;48555;50.952;-0.120;2024-01-10T03:00:38;11.27;;;3.58;;
61393;SDS011;48555;50.952;-0.120;2024-01-10T03:03:03;8.38;;;3.40;;
61393;SDS011;48555;50.952;-0.120;2024-01-10T03:05:29;6.22;;;2.70;;
61393;SDS011;48555;50.952;-0.120;2024-01-10T03:07:54;7.55;;;3.70;;
61393;SDS011;48555;50.952;-0.120;2024-01-10T03:10:19;6.72;;;3.10;;
61393;SDS011;48555;50.952;-0.120;2024-01-10T03:12:45;7.95;;;3.42;;
61393;SDS011;48555;50.952;-0.120;2024-01-10T03:15:10;7.93;;;3.60;;
61393;SDS011;48555;50.952;-0.120;2024-01-10T03:17:35;5.75;;;2.85;;
61393;SDS011;48555;50.952;-0.120;2024-01-10T03:20:01;7.85;;;3.53;;
61393;SDS011;48555;50.952;-0.120;2024-01-10T03:22:28;6.28;;;3.33;;
61393;SDS011;48555;50.952;-0.120;2024-01-10T03:24:54;9.10;;;3.88;;
61393;SDS011;48555;50.952;-0.120;2024-01-10T03:27:19;8.85;;;3.78;;
61393;SDS011;48555;50.952;-0.120;2024-01-10T03:29:45;9.82;;;4.03;;
61393;SDS011;48555;50.952;-0.120;2024-01-10T03:32:10;9.43;;;3.97;;
61393;SDS011;48555;50.952;-0.120;2024-01-10T03:34:35;11.80;;;3.80;;
61393;SDS011;48555;50.952;-0.120;2024-01-10T03:37:01;8.15;;;3.60;;
61393;SDS011;48555;50.952;-0.120;2024-01-10T03:39:26;8.40;;;3.40;;
61393;SDS011;48555;50.952;-0.120;2024-01-10T03:41:51;8.23;;;2.88;;
61393;SDS011;48555;50.952;-0.120;2024-01-10T03:44:17;7.57;;;3.50;;
61393;SDS011;48555;50.952;-0.120;2024-01-10T03:46:42;7.25;;;3.42;;
61393;SDS011;48555;50.952;-0.120;2024-01-10T03:49:07;6.57;;;3.50;;
61393;SDS011;48555;50.952;-0.120;2024-01-10T03:51:33;8.77;;;3.70;;
61393;SDS011;48555;50.952;-0.120;2024-01-10T03:53:58;7.85;;;3.47;;
61393;SDS011;48555;50.952;-0.120;2024-01-10T03:56:23;7.38;;;3.55;;
61393;SDS011;48555;50.952;-0.120;2024-01-10T03:58:49;6.45;;;2.88;;
61393;SDS011;48555;50.952;-0.120;2024-01-10T04:01:14;11.95;;;3.33;;
61393;SDS011;48555;50.952;-0.120;2024-01-10T04:03:39;5.53;;;2.95;;
61393;SDS011;48555;50.952;-0.120;2024-01-10T04:06:07;6.82;;;3.00;;
61393;SDS011;48555;50.952;-0.120;2024-01-10T04:08:33;7.45;;;3.13;;
61393;SDS011;48555;50.952;-0.120;2024-01-10T04:10:58;10.60;;;3.42;;
61393;SDS011;48555;50.952;-0.120;2024-01-10T04:13:24;9.48;;;3.33;;
61393;SDS011;48555;50.952;-0.120;2024-01-10T04:15:49;7.43;;;3.50;;
61393;SDS011;48555;50.952;-0.120;2024-01-10T04:18:14;8.18;;;3.13;;
61393;SDS011;48555;50.952;-0.120;2024-01-10T04:20:40;7.57;;;3.15;;
61393;SDS011;48555;50.952;-0.120;2024-01-10T04:23:05;7.07;;;3.20;;
61393;SDS011;48555;50.952;-0.120;2024-01-10T04:25:31;7.53;;;3.33;;
61393;SDS011;48555;50.952;-0.120;2024-01-10T04:27:56;10.77;;;4.00;;
61393;SDS011;48555;50.952;-0.120;2024-01-10T04:30:22;9.18;;;3.45;;
61393;SDS011;48555;50.952;-0.120;2024-01-10T04:32:48;8.38;;;3.67;;
61393;SDS011;48555;50.952;-0.120;2024-01-10T04:35:13;8.77;;;3.40;;
61393;SDS011;48555;50.952;-0.120;2024-01-10T04:37:39;9.43;;;3.75;;
61393;SDS011;48555;50.952;-0.120;2024-01-10T04:40:05;7.07;;;3.13;;
61393;SDS011;48555;50.952;-0.120;2024-01-10T04:42:31;8.65;;;3.75;;
61393;SDS011;48555;50.952;-0.120;2024-01-10T04:44:56;7.75;;;3.60;;
61393;SDS011;48555;50.952;-0.120;2024-01-10T04:47:22;9.65;;;4.00;;
61393;SDS011;48555;50.952;-0.120;2024-01-10T04:49:47;10.50;;;3.38;;
61393;SDS011;48555;50.952;-0.120;2024-01-10T04:52:12;9.48;;;3.50;;
61393;SDS011;48555;50.952;-0.120;2024-01-10T04:54:38;7.80;;;3.60;;
61393;SDS011;48555;50.952;-0.120;2024-01-10T04:57:04;8.88;;;3.92;;
61393;SDS011;48555;50.952;-0.120;2024-01-10T04:59:29;7.22;;;3.33;;
61393;SDS011;48555;50.952;-0.120;2024-01-10T05:01:54;8.48;;;3.17;;
61393;SDS011;48555;50.952;-0.120;2024-01-10T05:04:20;8.10;;;3.00;;
61393;SDS011;48555;50.952;-0.120;2024-01-10T05:06:45;6.90;;;3.33;;
61393;SDS011;48555;50.952;-0.120;2024-01-10T05:09:10;9.85;;;3.38;;
61393;SDS011;48555;50.952;-0.120;2024-01-10T05:11:37;8.65;;;4.22;;
61393;SDS011;48555;50.952;-0.120;2024-01-10T05:14:02;8.90;;;3.67;;
61393;SDS011;48555;50.952;-0.120;2024-01-10T05:16:28;7.70;;;3.22;;
61393;SDS011;48555;50.952;-0.120;2024-01-10T05:18:53;6.20;;;3.42;;
61393;SDS011;48555;50.952;-0.120;2024-01-10T05:21:19;6.90;;;3.28;;
61393;SDS011;48555;50.952;-0.120;2024-01-10T05:23:45;7.57;;;3.20;;
61393;SDS011;48555;50.952;-0.120;2024-01-10T05:26:10;9.07;;;3.63;;
61393;SDS011;48555;50.952;-0.120;2024-01-10T05:28:35;8.60;;;3.33;;
61393;SDS011;48555;50.952;-0.120;2024-01-10T05:31:01;9.00;;;3.25;;
61393;SDS011;48555;50.952;-0.120;2024-01-10T05:33:26;9.18;;;3.10;;
61393;SDS011;48555;50.952;-0.120;2024-01-10T05:35:52;6.60;;;2.97;;
61393;SDS011;48555;50.952;-0.120;2024-01-10T05:38:17;7.90;;;3.20;;
61393;SDS011;48555;50.952;-0.120;2024-01-10T05:40:42;8.13;;;3.40;;
61393;SDS011;48555;50.952;-0.120;2024-01-10T05:43:08;5.97;;;2.92;;
61393;SDS011;48555;50.952;-0.120;2024-01-10T05:45:35;9.32;;;3.50;;
61393;SDS011;48555;50.952;-0.120;2024-01-10T05:48:00;8.27;;;3.65;;
61393;SDS011;48555;50.952;-0.120;2024-01-10T05:50:26;6.72;;;3.38;;
61393;SDS011;48555;50.952;-0.120;2024-01-10T05:52:51;7.60;;;3.50;;
61393;SDS011;48555;50.952;-0.120;2024-01-10T05:55:18;6.43;;;3.47;;
61393;SDS011;48555;50.952;-0.120;2024-01-10T05:57:44;8.40;;;3.58;;
61393;SDS011;48555;50.952;-0.120;2024-01-10T06:00:09;9.77;;;3.63;;
61393;SDS011;48555;50.952;-0.120;2024-01-10T06:02:39;7.85;;;3.30;;
61393;SDS011;48555;50.952;-0.120;2024-01-10T06:05:06;8.52;;;3.50;;
61393;SDS011;48555;50.952;-0.120;2024-01-10T06:07:32;7.00;;;3.50;;
61393;SDS011;48555;50.952;-0.120;2024-01-10T06:09:57;9.07;;;3.42;;
61393;SDS011;48555;50.952;-0.120;2024-01-10T06:12:22;7.30;;;3.78;;
61393;SDS011;48555;50.952;-0.120;2024-01-10T06:14:48;7.65;;;3.75;;
61393;SDS011;48555;50.952;-0.120;2024-01-10T06:17:13;7.40;;;3.47;;
61393;SDS011;48555;50.952;-0.120;2024-01-10T06:19:38;9.48;;;3.83;;
61393;SDS011;48555;50.952;-0.120;2024-01-10T06:22:04;8.45;;;3.65;;
61393;SDS011;48555;50.952;-0.120;2024-01-10T06:24:30;7.15;;;3.63;;
61393;SDS011;48555;50.952;-0.120;2024-01-10T06:26:55;9.07;;;3.92;;
61393;SDS011;48555;50.952;-0.120;2024-01-10T06:29:21;10.23;;;3.78;;
61393;SDS011;48555;50.952;-0.120;2024-01-10T06:31:46;6.38;;;3.58;;
61393;SDS011;48555;50.952;-0.120;2024-01-10T06:34:12;8.40;;;3.85;;
61393;SDS011;48555;50.952;-0.120;2024-01-10T06:36:37;7.82;;;3.55;;
61393;SDS011;48555;50.952;-0.120;2024-01-10T06:39:03;9.15;;;3.88;;
61393;SDS011;48555;50.952;-0.120;2024-01-10T06:41:29;6.82;;;3.13;;
61393;SDS011;48555;50.952;-0.120;2024-01-10T06:43:54;7.45;;;3.67;;
61393;SDS011;48555;50.952;-0.120;2024-01-10T06:46:20;9.52;;;3.83;;
61393;SDS011;48555;50.952;-0.120;2024-01-10T06:48:46;7.35;;;3.50;;
61393;SDS011;48555;50.952;-0.120;2024-01-10T06:51:12;6.15;;;3.45;;
61393;SDS011;48555;50.952;-0.120;2024-01-10T06:53:38;6.20;;;3.08;;
61393;SDS011;48555;50.952;-0.120;2024-01-10T06:56:05;8.45;;;3.75;;
61393;SDS011;48555;50.952;-0.120;2024-01-10T06:58:30;6.07;;;3.47;;
61393;SDS011;48555;50.952;-0.120;2024-01-10T07:00:56;8.98;;;3.60;;
61393;SDS011;48555;50.952;-0.120;2024-01-10T07:03:21;10.25;;;3.45;;
61393;SDS011;48555;50.952;-0.120;2024-01-10T07:05:46;8.10;;;3.80;;
61393;SDS011;48555;50.952;-0.120;2024-01-10T07:08:12;6.25;;;3.72;;
61393;SDS011;48555;50.952;-0.120;2024-01-10T07:10:37;7.45;;;3.65;;
61393;SDS011;48555;50.952;-0.120;2024-01-10T07:13:03;6.13;;;3.30;;
61393;SDS011;48555;50.952;-0.120;2024-01-10T07:15:29;8.13;;;3.97;;
61393;SDS011;48555;50.952;-0.120;2024-01-10T07:17:55;8.32;;;3.95;;
61393;SDS011;48555;50.952;-0.120;2024-01-10T07:20:20;7.68;;;3.97;;
61393;SDS011;48555;50.952;-0.120;2024-01-10T07:22:45;10.10;;;4.15;;
61393;SDS011;48555;50.952;-0.120;2024-01-10T07:25:11;7.72;;;3.85;;
61393;SDS011;48555;50.952;-0.120;2024-01-10T07:27:39;9.30;;;3.92;;
61393;SDS011;48555;50.952;-0.120;2024-01-10T07:30:06;7.00;;;4.10;;
61393;SDS011;48555;50.952;-0.120;2024-01-10T07:32:38;9.65;;;4.00;;
61393;SDS011;48555;50.952;-0.120;2024-01-10T07:35:07;7.55;;;3.78;;
61393;SDS011;48555;50.952;-0.120;2024-01-10T07:37:36;9.13;;;4.15;;
61393;SDS011;48555;50.952;-0.120;2024-01-10T07:40:03;8.18;;;4.28;;
61393;SDS011;48555;50.952;-0.120;2024-01-10T07:42:32;8.82;;;3.67;;
61393;SDS011;48555;50.952;-0.120;2024-01-10T07:44:58;9.50;;;4.53;;
61393;SDS011;48555;50.952;-0.120;2024-01-10T07:47:24;7.60;;;3.83;;
61393;SDS011;48555;50.952;-0.120;2024-01-10T07:49:49;8.75;;;3.80;;
61393;SDS011;48555;50.952;-0.120;2024-01-10T07:52:14;7.75;;;3.88;;
61393;SDS011;48555;50.952;-0.120;2024-01-10T07:54:41;7.05;;;3.90;;
61393;SDS011;48555;50.952;-0.120;2024-01-10T07:57:06;8.02;;;4.00;;
61393;SDS011;48555;50.952;-0.120;2024-01-10T07:59:32;7.90;;;4.30;;
61393;SDS011;48555;50.952;-0.120;2024-01-10T08:01:59;9.05;;;4.20;;
61393;SDS011;48555;50.952;-0.120;2024-01-10T08:04:25;8.18;;;4.20;;
61393;SDS011;48555;50.952;-0.120;2024-01-10T08:06:52;6.57;;;3.90;;
61393;SDS011;48555;50.952;-0.120;2024-01-10T08:09:18;9.55;;;4.07;;
61393;SDS011;48555;50.952;-0.120;2024-01-10T08:11:44;7.75;;;4.18;;
61393;SDS011;48555;50.952;-0.120;2024-01-10T08:14:10;9.65;;;4.05;;
61393;SDS011;48555;50.952;-0.120;2024-01-10T08:16:35;11.10;;;3.83;;
61393;SDS011;48555;50.952;-0.120;2024-01-10T08:19:01;7.30;;;4.10;;
61393;SDS011;48555;50.952;-0.120;2024-01-10T08:21:26;8.27;;;4.22;;
61393;SDS011;48555;50.952;-0.120;2024-01-10T08:23:51;8.65;;;3.90;;
61393;SDS011;48555;50.952;-0.120;2024-01-10T08:26:16;8.43;;;3.90;;
61393;SDS011;48555;50.952;-0.120;2024-01-10T08:28:42;9.00;;;4.20;;
61393;SDS011;48555;50.952;-0.120;2024-01-10T08:31:07;8.70;;;4.50;;
61393;SDS011;48555;50.952;-0.120;2024-01-10T08:33:33;9.75;;;4.60;;
61393;SDS011;48555;50.952;-0.120;2024-01-10T08:35:58;9.20;;;4.07;;
61393;SDS011;48555;50.952;-0.120;2024-01-10T08:38:24;8.40;;;4.05;;
61393;SDS011;48555;50.952;-0.120;2024-01-10T08:40:49;8.30;;;4.70;;
61393;SDS011;48555;50.952;-0.120;2024-01-10T08:43:14;7.78;;;4.45;;
61393;SDS011;48555;50.952;-0.120;2024-01-10T08:45:39;8.43;;;4.63;;
61393;SDS011;48555;50.952;-0.120;2024-01-10T08:48:05;8.90;;;3.88;;
61393;SDS011;48555;50.952;-0.120;2024-01-10T08:50:31;8.95;;;4.70;;
61393;SDS011;48555;50.952;-0.120;2024-01-10T08:52:58;9.95;;;5.68;;
61393;SDS011;48555;50.952;-0.120;2024-01-10T08:55:24;9.13;;;5.05;;
61393;SDS011;48555;50.952;-0.120;2024-01-10T08:57:49;10.43;;;5.57;;
61393;SDS011;48555;50.952;-0.120;2024-01-10T09:00:15;12.73;;;6.80;;
61393;SDS011;48555;50.952;-0.120;2024-01-10T09:02:41;13.25;;;6.20;;
61393;SDS011;48555;50.952;-0.120;2024-01-10T09:05:07;10.65;;;5.22;;
61393;SDS011;48555;50.952;-0.120;2024-01-10T09:07:34;11.48;;;5.22;;
61393;SDS011;48555;50.952;-0.120;2024-01-10T09:10:00;8.52;;;4.30;;
61393;SDS011;48555;50.952;-0.120;2024-01-10T09:12:26;8.07;;;4.43;;
61393;SDS011;48555;50.952;-0.120;2024-01-10T09:14:51;8.93;;;4.38;;
61393;SDS011;48555;50.952;-0.120;2024-01-10T09:17:17;8.55;;;4.32;;
61393;SDS011;48555;50.952;-0.120;2024-01-10T09:19:42;10.43;;;4.65;;
61393;SDS011;48555;50.952;-0.120;2024-01-10T09:22:07;10.45;;;4.63;;
61393;SDS011;48555;50.952;-0.120;2024-01-10T09:24:33;8.50;;;4.22;;
61393;SDS011;48555;50.952;-0.120;2024-01-10T09:26:58;11.30;;;4.28;;
61393;SDS011;48555;50.952;-0.120;2024-01-10T09:29:24;10.80;;;4.72;;
61393;SDS011;48555;50.952;-0.120;2024-01-10T09:31:53;10.55;;;3.80;;
61393;SDS011;48555;50.952;-0.120;2024-01-10T09:34:19;11.90;;;4.50;;
61393;SDS011;48555;50.952;-0.120;2024-01-10T09:36:44;10.23;;;4.53;;
61393;SDS011;48555;50.952;-0.120;2024-01-10T09:39:10;10.63;;;3.92;;
61393;SDS011;48555;50.952;-0.120;2024-01-10T09:41:40;10.80;;;4.63;;
61393;SDS011;48555;50.952;-0.120;2024-01-10T09:44:17;9.20;;;3.85;;
61393;SDS011;48555;50.952;-0.120;2024-01-10T09:46:46;9.05;;;4.45;;
61393;SDS011;48555;50.952;-0.120;2024-01-10T09:49:16;8.73;;;3.90;;
61393;SDS011;48555;50.952;-0.120;2024-01-10T09:51:41;9.63;;;3.78;;
61393;SDS011;48555;50.952;-0.120;2024-01-10T09:54:07;7.82;;;3.67;;
61393;SDS011;48555;50.952;-0.120;2024-01-10T09:56:32;10.68;;;4.07;;
61393;SDS011;48555;50.952;-0.120;2024-01-10T09:58:58;9.23;;;3.55;;
61393;SDS011;48555;50.952;-0.120;2024-01-10T10:01:23;11.77;;;3.70;;
61393;SDS011;48555;50.952;-0.120;2024-01-10T10:03:49;9.40;;;3.90;;
61393;SDS011;48555;50.952;-0.120;2024-01-10T10:06:15;10.32;;;3.65;;
61393;SDS011;48555;50.952;-0.120;2024-01-10T10:08:41;10.23;;;3.88;;
61393;SDS011;48555;50.952;-0.120;2024-01-10T10:11:07;13.50;;;4.25;;
61393;SDS011;48555;50.952;-0.120;2024-01-10T10:13:37;8.13;;;3.63;;
61393;SDS011;48555;50.952;-0.120;2024-01-10T10:16:06;10.65;;;4.13;;
61393;SDS011;48555;50.952;-0.120;2024-01-10T10:18:34;13.90;;;4.15;;
61393;SDS011;48555;50.952;-0.120;2024-01-10T10:21:09;9.57;;;3.80;;
61393;SDS011;48555;50.952;-0.120;2024-01-10T10:23:39;11.73;;;4.45;;
61393;SDS011;48555;50.952;-0.120;2024-01-10T10:26:13;8.18;;;3.88;;
61393;SDS011;48555;50.952;-0.120;2024-01-10T10:28:44;9.68;;;4.43;;
61393;SDS011;48555;50.952;-0.120;2024-01-10T10:31:09;12.75;;;4.30;;
61393;SDS011;48555;50.952;-0.120;2024-01-10T10:33:36;9.82;;;3.97;;
61393;SDS011;48555;50.952;-0.120;2024-01-10T10:36:01;7.03;;;3.38;;
61393;SDS011;48555;50.952;-0.120;2024-01-10T10:38:28;10.32;;;3.92;;
61393;SDS011;48555;50.952;-0.120;2024-01-10T10:40:53;7.22;;;3.47;;
61393;SDS011;48555;50.952;-0.120;2024-01-10T10:43:20;8.80;;;3.67;;
61393;SDS011;48555;50.952;-0.120;2024-01-10T10:45:49;8.48;;;3.55;;
61393;SDS011;48555;50.952;-0.120;2024-01-10T10:48:16;11.23;;;3.90;;
61393;SDS011;48555;50.952;-0.120;2024-01-10T10:50:43;7.53;;;3.60;;
61393;SDS011;48555;50.952;-0.120;2024-01-10T10:53:31;7.65;;;4.18;;
61393;SDS011;48555;50.952;-0.120;2024-01-10T10:55:58;9.15;;;4.32;;
61393;SDS011;48555;50.952;-0.120;2024-01-10T10:58:25;9.88;;;4.00;;
61393;SDS011;48555;50.952;-0.120;2024-01-10T11:00:50;8.65;;;3.72;;
61393;SDS011;48555;50.952;-0.120;2024-01-10T11:03:17;11.98;;;4.75;;
61393;SDS011;48555;50.952;-0.120;2024-01-10T11:05:43;10.68;;;4.60;;
61393;SDS011;48555;50.952;-0.120;2024-01-10T11:08:11;11.20;;;4.90;;
61393;SDS011;48555;50.952;-0.120;2024-01-10T11:10:41;13.63;;;5.32;;
61393;SDS011;48555;50.952;-0.120;2024-01-10T11:18:54;10.82;;;5.25;;
61393;SDS011;48555;50.952;-0.120;2024-01-10T11:24:42;10.60;;;5.05;;
61393;SDS011;48555;50.952;-0.120;2024-01-10T11:27:11;13.07;;;6.18;;
61393;SDS011;48555;50.952;-0.120;2024-01-10T11:29:38;12.00;;;6.35;;
61393;SDS011;48555;50.952;-0.120;2024-01-10T11:32:07;16.00;;;5.50;;
61393;SDS011;48555;50.952;-0.120;2024-01-10T11:34:48;14.38;;;5.90;;
61393;SDS011;48555;50.952;-0.120;2024-01-10T11:37:15;12.80;;;6.10;;
61393;SDS011;48555;50.952;-0.120;2024-01-10T11:39:43;11.02;;;4.80;;
61393;SDS011;48555;50.952;-0.120;2024-01-10T11:42:09;9.32;;;5.05;;
61393;SDS011;48555;50.952;-0.120;2024-01-10T11:44:35;11.02;;;5.32;;
61393;SDS011;48555;50.952;-0.120;2024-01-10T11:47:13;13.15;;;5.18;;
61393;SDS011;48555;50.952;-0.120;2024-01-10T11:49:40;11.55;;;5.28;;
61393;SDS011;48555;50.952;-0.120;2024-01-10T11:52:05;10.75;;;4.93;;
61393;SDS011;48555;50.952;-0.120;2024-01-10T11:54:40;10.43;;;4.40;;
61393;SDS011;48555;50.952;-0.120;2024-01-10T11:57:10;11.18;;;4.35;;
61393;SDS011;48555;50.952;-0.120;2024-01-10T11:59:42;11.27;;;4.97;;
61393;SDS011;48555;50.952;-0.120;2024-01-10T12:02:12;11.57;;;4.38;;
61393;SDS011;48555;50.952;-0.120;2024-01-10T12:04:39;10.50;;;4.18;;
61393;SDS011;48555;50.952;-0.120;2024-01-10T12:07:06;8.80;;;4.00;;
61393;SDS011;48555;50.952;-0.120;2024-01-10T12:09:32;11.50;;;4.50;;
61393;SDS011;48555;50.952;-0.120;2024-01-10T12:12:01;10.80;;;4.22;;
61393;SDS011;48555;50.952;-0.120;2024-01-10T12:14:27;8.80;;;3.90;;
61393;SDS011;48555;50.952;-0.120;2024-01-10T12:16:53;10.98;;;3.83;;
61393;SDS011;48555;50.952;-0.120;2024-01-10T12:19:19;6.90;;;3.60;;
61393;SDS011;48555;50.952;-0.120;2024-01-10T12:21:44;8.80;;;3.90;;
61393;SDS011;48555;50.952;-0.120;2024-01-10T12:24:10;10.45;;;4.18;;
61393;SDS011;48555;50.952;-0.120;2024-01-10T12:26:35;13.23;;;3.85;;
61393;SDS011;48555;50.952;-0.120;2024-01-10T12:29:03;10.85;;;3.92;;
61393;SDS011;48555;50.952;-0.120;2024-01-10T12:31:31;7.88;;;3.80;;
61393;SDS011;48555;50.952;-0.120;2024-01-10T12:33:57;10.25;;;3.78;;
61393;SDS011;48555;50.952;-0.120;2024-01-10T12:36:25;9.93;;;3.60;;
61393;SDS011;48555;50.952;-0.120;2024-01-10T12:38:51;9.40;;;3.03;;
61393;SDS011;48555;50.952;-0.120;2024-01-10T12:41:17;5.57;;;2.92;;
61393;SDS011;48555;50.952;-0.120;2024-01-10T12:43:43;8.80;;;3.15;;
61393;SDS011;48555;50.952;-0.120;2024-01-10T12:46:14;9.48;;;3.17;;
61393;SDS011;48555;50.952;-0.120;2024-01-10T12:48:40;7.43;;;2.70;;
61393;SDS011;48555;50.952;-0.120;2024-01-10T12:51:10;6.85;;;2.00;;
61393;SDS011;48555;50.952;-0.120;2024-01-10T12:53:43;5.80;;;2.30;;
61393;SDS011;48555;50.952;-0.120;2024-01-10T12:56:10;7.82;;;2.47;;
61393;SDS011;48555;50.952;-0.120;2024-01-10T12:58:39;5.65;;;1.48;;
61393;SDS011;48555;50.952;-0.120;2024-01-10T13:01:07;5.90;;;2.05;;
61393;SDS011;48555;50.952;-0.120;2024-01-10T13:03:33;6.95;;;2.15;;
61393;SDS011;48555;50.952;-0.120;2024-01-10T13:05:58;5.85;;;2.17;;
61393;SDS011;48555;50.952;-0.120;2024-01-10T13:08:24;6.60;;;2.50;;
61393;SDS011;48555;50.952;-0.120;2024-01-10T13:10:49;4.53;;;1.80;;
61393;SDS011;48555;50.952;-0.120;2024-01-10T13:13:15;3.22;;;1.95;;
61393;SDS011;48555;50.952;-0.120;2024-01-10T13:15:42;7.30;;;2.30;;
61393;SDS011;48555;50.952;-0.120;2024-01-10T13:18:08;2.88;;;1.52;;
61393;SDS011;48555;50.952;-0.120;2024-01-10T13:20:36;7.47;;;2.20;;
61393;SDS011;48555;50.952;-0.120;2024-01-10T13:23:03;4.88;;;1.80;;
61393;SDS011;48555;50.952;-0.120;2024-01-10T13:25:29;6.18;;;1.88;;
61393;SDS011;48555;50.952;-0.120;2024-01-10T13:27:54;4.90;;;1.98;;
61393;SDS011;48555;50.952;-0.120;2024-01-10T13:30:19;3.03;;;1.52;;
61393;SDS011;48555;50.952;-0.120;2024-01-10T13:32:45;3.60;;;1.90;;
61393;SDS011;48555;50.952;-0.120;2024-01-10T13:35:12;5.28;;;1.75;;
61393;SDS011;48555;50.952;-0.120;2024-01-10T13:37:38;5.32;;;2.00;;
61393;SDS011;48555;50.952;-0.120;2024-01-10T13:40:04;4.72;;;2.13;;
61393;SDS011;48555;50.952;-0.120;2024-01-10T13:42:32;4.55;;;1.58;;
61393;SDS011;48555;50.952;-0.120;2024-01-10T13:44:57;6.47;;;1.95;;
61393;SDS011;48555;50.952;-0.120;2024-01-10T13:47:23;5.03;;;1.75;;
61393;SDS011;48555;50.952;-0.120;2024-01-10T13:49:48;3.78;;;1.60;;
61393;SDS011;48555;50.952;-0.120;2024-01-10T13:52:13;4.93;;;2.08;;
61393;SDS011;48555;50.952;-0.120;2024-01-10T13:54:39;4.50;;;1.90;;
61393;SDS011;48555;50.952;-0.120;2024-01-10T13:57:04;3.83;;;1.75;;
61393;SDS011;48555;50.952;-0.120;2024-01-10T13:59:30;5.80;;;2.05;;
61393;SDS011;48555;50.952;-0.120;2024-01-10T14:01:56;7.15;;;2.15;;
61393;SDS011;48555;50.952;-0.120;2024-01-10T14:04:22;5.28;;;2.05;;
61393;SDS011;48555;50.952;-0.120;2024-01-10T14:06:47;4.18;;;1.60;;
61393;SDS011;48555;50.952;-0.120;2024-01-10T14:09:13;5.95;;;1.70;;
61393;SDS011;48555;50.952;-0.120;2024-01-10T14:11:39;7.43;;;2.28;;
61393;SDS011;48555;50.952;-0.120;2024-01-10T14:14:04;9.90;;;2.40;;
61393;SDS011;48555;50.952;-0.120;2024-01-10T14:16:30;6.53;;;2.10;;
61393;SDS011;48555;50.952;-0.120;2024-01-10T14:18:55;7.28;;;2.17;;
61393;SDS011;48555;50.952;-0.120;2024-01-10T14:21:21;4.78;;;1.50;;
61393;SDS011;48555;50.952;-0.120;2024-01-10T14:23:47;5.70;;;1.90;;
61393;SDS011;48555;50.952;-0.120;2024-01-10T14:26:14;7.20;;;1.90;;
61393;SDS011;48555;50.952;-0.120;2024-01-10T14:28:40;2.70;;;1.38;;
61393;SDS011;48555;50.952;-0.120;2024-01-10T14:31:05;8.07;;;1.98;;
61393;SDS011;48555;50.952;-0.120;2024-01-10T14:33:31;1.98;;;1.08;;